Terminal Aerodrome Forecast
Issued by NWS Shreveport, LA

Home | Current Version | Previous Version | Text Only | Print | Product List | Glossary On
Versions: 1 2 3 4 5 6 7 8 9 10 11 12 13 14 15 16 17 18 19 20
874
FTUS44 KSHV 221928 AAA
TAFGGG
TAF AMD
KGGG 221928Z 2219/2318 30012KT P6SM SCT025
      TEMPO 2219/2221 BKN025
     FM230000 29005KT P6SM SCT035
     FM231000 29009KT P6SM BKN025=

USA.gov is the U.S. government's official web portal to all federal, state and local government web resources and services.